Time;durP1;ratioP1;P1;durP2;ratioP2;P2;SDS_P1;SDS_P2;PMS_P1;PMS_P2;Temp;Humidity;BMP_temperature;BMP_pressure;BME280_temperature;BME280_humidity;BME280_pressure;Samples;Min_cycle;Max_cycle;Signal;HPM_P1;HPM_P2
2022/06/14 00:03:06;;;;;;;14.03;7.87;;;;;;;18.80;94.45;98955.78;5069984;28;20261;-84
2022/06/14 00:05:32;;;;;;;11.03;7.97;;;;;;;18.78;95.32;98951.56;5069858;28;20730;-84
2022/06/14 00:07:58;;;;;;;10.83;8.13;;;;;;;18.72;95.68;98949.63;5070118;28;20696;-83
2022/06/14 00:10:25;;;;;;;9.57;8.13;;;;;;;18.71;96.29;98949.78;5069751;28;20264;-84
2022/06/14 00:12:51;;;;;;;12.60;8.70;;;;;;;18.67;96.79;98944.13;5069839;28;20218;-83
2022/06/14 00:15:19;;;;;;;10.27;8.00;;;;;;;18.66;96.94;98937.34;5069492;28;20753;-84
2022/06/14 00:17:45;;;;;;;10.93;8.53;;;;;;;18.62;97.53;98940.44;5069642;28;20212;-81
2022/06/14 00:20:12;;;;;;;13.17;8.37;;;;;;;18.58;97.98;98939.94;5069481;28;20239;-82
2022/06/14 00:22:38;;;;;;;11.20;8.87;;;;;;;18.55;98.55;98941.06;5069485;28;20212;-83
2022/06/14 00:25:06;;;;;;;12.10;8.80;;;;;;;18.52;99.19;98936.22;5069451;28;20718;-84
2022/06/14 00:27:32;;;;;;;11.27;8.40;;;;;;;18.48;99.87;98944.50;5069389;28;20204;-81
2022/06/14 00:29:58;;;;;;;12.50;9.03;;;;;;;18.44;100.00;98935.44;5069192;28;20237;-84
2022/06/14 00:32:25;;;;;;;11.33;8.60;;;;;;;18.43;100.00;98931.25;5069350;28;20694;-82
2022/06/14 00:34:51;;;;;;;13.13;9.10;;;;;;;18.42;100.00;98940.00;5069048;28;20213;-82
2022/06/14 00:37:19;;;;;;;10.17;9.00;;;;;;;18.39;100.00;98933.38;5069367;28;20226;-83
2022/06/14 00:39:46;;;;;;;11.53;9.07;;;;;;;18.37;100.00;98937.09;5069224;28;20206;-82
2022/06/14 00:42:20;;;;;;;13.93;9.60;;;;;;;18.29;100.00;98941.28;5069145;28;20213;-83
2022/06/14 00:45:02;;;;;;;10.90;9.07;;;;;;;18.25;100.00;98937.41;5069143;28;20226;-81
2022/06/14 00:47:33;;;;;;;11.67;8.90;;;;;;;18.18;100.00;98936.47;5067170;28;20279;-82
2022/06/14 00:50:04;;;;;;;13.97;9.67;;;;;;;18.15;100.00;98941.13;5069294;28;20253;-81
2022/06/14 00:52:35;;;;;;;13.57;9.60;;;;;;;18.12;100.00;98944.84;5069275;28;20604;-83
2022/06/14 00:55:07;;;;;;;13.13;9.37;;;;;;;18.10;100.00;98946.81;5069088;28;20304;-83
2022/06/14 00:57:38;;;;;;;13.20;8.90;;;;;;;18.10;100.00;98949.41;5069026;28;20255;-81
2022/06/14 01:00:10;;;;;;;11.80;9.93;;;;;;;18.12;100.00;98952.63;5068769;28;20256;-81
2022/06/14 01:02:43;;;;;;;15.47;9.70;;;;;;;18.12;100.00;98946.63;5068977;28;20217;-82
2022/06/14 01:05:17;;;;;;;13.87;9.93;;;;;;;18.10;100.00;98952.00;5069157;28;20227;-81
2022/06/14 01:07:47;;;;;;;16.43;9.77;;;;;;;18.06;100.00;98950.69;5068823;28;20276;-83
2022/06/14 01:10:17;;;;;;;12.83;9.50;;;;;;;18.06;100.00;98950.69;5068586;28;20232;-83
2022/06/14 01:12:47;;;;;;;14.10;9.67;;;;;;;18.05;100.00;98943.91;5068902;28;20226;-83
2022/06/14 01:15:17;;;;;;;14.20;9.60;;;;;;;18.05;100.00;98943.91;5068738;28;20773;-83
2022/06/14 01:17:48;;;;;;;11.67;9.40;;;;;;;18.02;100.00;98952.00;5068868;28;20213;-83
2022/06/14 01:20:17;;;;;;;12.77;10.10;;;;;;;17.99;100.00;98947.13;5068836;28;20235;-81
2022/06/14 01:22:45;;;;;;;13.13;9.47;;;;;;;17.97;100.00;98941.31;5068791;28;20214;-81
2022/06/14 01:25:13;;;;;;;14.30;10.07;;;;;;;17.94;100.00;98942.44;5068411;28;20299;-83
2022/06/14 01:27:40;;;;;;;13.80;9.23;;;;;;;17.94;100.00;98936.47;5068540;28;20206;-83
2022/06/14 01:30:11;;;;;;;11.90;9.50;;;;;;;17.92;100.00;98939.22;5068223;28;20234;-83
2022/06/14 01:32:44;;;;;;;13.70;10.37;;;;;;;17.88;100.00;98938.72;5068768;28;20216;-82
2022/06/14 01:35:18;;;;;;;16.40;10.00;;;;;;;17.87;100.00;98939.69;5068464;28;20233;-83
2022/06/14 01:37:48;;;;;;;15.37;10.43;;;;;;;17.83;100.00;98937.56;5068425;28;20241;-82
2022/06/14 01:40:14;;;;;;;14.73;9.87;;;;;;;17.81;100.00;98940.34;5068674;28;20604;-81
2022/06/14 01:43:15;;;;;;;12.33;10.13;;;;;;;17.76;100.00;98945.16;5068368;28;20235;-83
2022/06/14 01:45:54;;;;;;;15.33;10.00;;;;;;;17.76;100.00;98945.16;5068466;28;20252;-82
2022/06/14 01:48:29;;;;;;;14.63;10.80;;;;;;;17.75;100.00;98940.97;5068632;28;20213;-81
2022/06/14 01:53:55;;;;;;;14.87;10.50;;;;;;;17.77;100.00;98940.78;5068396;28;20277;-82
2022/06/14 01:56:31;;;;;;;14.20;10.60;;;;;;;17.76;100.00;98945.16;5068205;28;20236;-83
2022/06/14 01:59:16;;;;;;;18.03;10.17;;;;;;;17.76;100.00;98939.16;5068090;28;20245;-82
2022/06/14 02:01:56;;;;;;;16.33;11.10;;;;;;;17.75;100.00;98948.72;5068581;28;20337;-82
2022/06/14 02:04:37;;;;;;;13.73;10.27;;;;;;;17.70;100.00;98950.16;5068328;28;20281;-82
2022/06/14 02:07:11;;;;;;;18.10;9.97;;;;;;;17.65;100.00;98956.59;5068039;28;20414;-81
2022/06/14 02:09:48;;;;;;;12.57;10.00;;;;;;;17.66;100.00;98960.03;5068104;28;20606;-81
2022/06/14 02:12:21;;;;;;;19.70;10.77;;;;;;;17.65;100.00;98956.59;5068165;28;20218;-81
2022/06/14 02:14:54;;;;;;;14.00;10.70;;;;;;;17.65;100.00;98963.56;5067941;28;20297;-83
2022/06/14 02:17:26;;;;;;;14.30;9.93;;;;;;;17.63;100.00;98971.47;5068003;28;20206;-82
2022/06/14 02:20:00;;;;;;;11.90;9.87;;;;;;;17.62;100.00;98974.22;5067853;28;20224;-82
2022/06/14 02:22:33;;;;;;;14.10;10.43;;;;;;;17.59;100.00;98977.13;5067894;28;20205;-82
2022/06/14 02:25:06;;;;;;;12.73;10.23;;;;;;;17.57;100.00;98976.47;5071214;28;20367;-82
2022/06/14 02:27:39;;;;;;;12.93;10.30;;;;;;;17.54;100.00;98982.78;5071519;28;20222;-82
2022/06/14 02:30:08;;;;;;;12.90;9.53;;;;;;;17.53;100.00;98978.56;5070885;28;20256;-81
2022/06/14 02:32:41;;;;;;;12.13;9.93;;;;;;;17.51;100.00;98985.69;5071290;28;20641;-82
2022/06/14 02:35:12;;;;;;;18.87;10.43;;;;;;;17.53;100.00;98985.50;5071136;28;20776;-81
2022/06/14 02:37:46;;;;;;;11.53;9.70;;;;;;;17.52;100.00;98987.28;5071337;28;20766;-82
2022/06/14 02:40:20;;;;;;;13.47;9.83;;;;;;;17.51;100.00;98977.09;5070939;28;20227;-81
2022/06/14 02:42:52;;;;;;;13.20;9.93;;;;;;;17.52;100.00;98981.31;5071376;28;20712;-83
2022/06/14 02:45:24;;;;;;;12.10;9.13;;;;;;;17.49;100.00;98979.84;5071079;28;20234;-81
2022/06/14 02:47:55;;;;;;;11.60;9.47;;;;;;;17.50;100.00;98978.06;5071250;28;20297;-82
2022/06/14 02:50:29;;;;;;;11.87;9.07;;;;;;;17.51;100.00;98979.69;5071042;28;20249;-82
2022/06/14 02:53:02;;;;;;;12.23;9.33;;;;;;;17.51;100.00;98979.69;5071229;28;20220;-81
2022/06/14 02:55:34;;;;;;;15.33;9.00;;;;;;;17.50;100.00;98976.28;5070971;28;20236;-82
2022/06/14 02:58:07;;;;;;;13.47;9.47;;;;;;;17.51;100.00;98965.00;5070993;28;20220;-82
2022/06/14 03:00:39;;;;;;;11.73;9.40;;;;;;;17.51;100.00;98969.34;5070902;28;20230;-81
2022/06/14 03:03:09;;;;;;;11.17;9.10;;;;;;;17.51;100.00;98977.09;5070982;28;20234;-82
2022/06/14 03:05:42;;;;;;;12.63;9.43;;;;;;;17.49;100.00;98972.09;5070827;28;20237;-82
2022/06/14 03:08:14;;;;;;;13.63;9.37;;;;;;;17.50;100.00;98980.66;5070772;28;20236;-82
2022/06/14 03:10:48;;;;;;;11.23;9.30;;;;;;;17.49;100.00;98972.09;5070441;28;20264;-83
2022/06/14 03:13:24;;;;;;;13.13;9.80;;;;;;;17.52;100.00;98978.72;5070847;28;20219;-82
2022/06/14 03:15:56;;;;;;;13.03;9.07;;;;;;;17.54;100.00;98972.44;5070630;28;20327;-83
2022/06/14 03:18:30;;;;;;;12.90;8.93;;;;;;;17.58;100.00;98978.09;5070714;28;20248;-82
2022/06/14 03:21:03;;;;;;;13.87;9.60;;;;;;;17.59;100.00;98977.91;5070511;28;20233;-85
2022/06/14 03:23:37;;;;;;;13.30;9.93;;;;;;;17.62;100.00;98979.38;5070723;28;20275;-82
2022/06/14 03:26:13;;;;;;;12.53;9.47;;;;;;;17.64;100.00;98990.38;5070227;28;20230;-82
2022/06/14 03:28:44;;;;;;;11.97;9.70;;;;;;;17.66;100.00;98980.69;5070446;28;20598;-82
2022/06/14 03:31:18;;;;;;;13.13;10.30;;;;;;;17.68;100.00;98983.91;5070215;28;20503;-84
2022/06/14 03:33:48;;;;;;;12.87;9.47;;;;;;;17.70;100.00;98982.00;5070692;28;20202;-82
2022/06/14 03:36:14;;;;;;;13.53;9.90;;;;;;;17.74;100.00;98985.06;5069275;28;20712;-82
2022/06/14 03:38:45;;;;;;;16.23;9.47;;;;;;;17.77;100.00;98993.34;5070234;28;20235;-82
2022/06/14 03:41:14;;;;;;;14.30;10.20;;;;;;;17.80;100.00;98985.28;5070082;28;20280;-84
2022/06/14 03:43:41;;;;;;;14.57;10.00;;;;;;;17.85;100.00;98984.78;5070209;28;20274;-84
2022/06/14 03:46:12;;;;;;;13.87;10.17;;;;;;;17.88;100.00;98985.28;5070149;28;20239;-82
2022/06/14 03:48:42;;;;;;;15.80;10.90;;;;;;;17.95;100.00;98989.81;5070141;28;20218;-84
2022/06/14 03:51:17;;;;;;;16.03;10.63;;;;;;;18.02;100.00;98995.97;5070019;28;20710;-84
2022/06/14 03:53:56;;;;;;;12.77;9.73;;;;;;;18.06;100.00;99000.69;5070114;28;20214;-83
2022/06/14 03:56:38;;;;;;;13.00;10.37;;;;;;;18.16;100.00;99003.09;5069856;28;20233;-84
2022/06/14 03:59:25;;;;;;;12.33;10.17;;;;;;;18.23;100.00;98991.09;5069974;28;20211;-85
2022/06/14 04:01:59;;;;;;;14.47;10.50;;;;;;;18.32;100.00;98992.75;5070009;28;20237;-80
2022/06/14 04:04:41;;;;;;;12.33;10.43;;;;;;;18.41;100.00;98997.91;5070143;28;20235;-82
2022/06/14 04:07:19;;;;;;;11.17;9.67;;;;;;;18.45;100.00;99002.59;5069847;28;20329;-81
2022/06/14 04:09:55;;;;;;;15.20;10.43;;;;;;;18.55;100.00;99007.59;5069666;28;20279;-82
2022/06/14 04:12:31;;;;;;;17.40;11.27;;;;;;;18.61;100.00;99006.94;5069938;28;20722;-81
2022/06/14 04:15:10;;;;;;;12.90;10.20;;;;;;;18.74;100.00;99006.47;5069625;28;20211;-82
2022/06/14 04:17:46;;;;;;;14.50;10.37;;;;;;;18.83;100.00;99015.03;5069967;28;20696;-82
2022/06/14 04:20:24;;;;;;;13.40;9.97;;;;;;;18.92;100.00;99003.69;5069691;28;20718;-82
2022/06/14 04:22:57;;;;;;;13.23;10.20;;;;;;;19.03;100.00;99011.09;5069674;28;20213;-82
2022/06/14 04:25:32;;;;;;;14.87;10.07;;;;;;;19.15;100.00;99019.31;5069561;28;20238;-82
2022/06/14 04:28:05;;;;;;;14.80;9.37;;;;;;;19.33;100.00;99016.47;5069499;28;20236;-81
2022/06/14 04:30:36;;;;;;;13.53;9.20;;;;;;;19.42;100.00;99021.47;5069427;28;20288;-82
2022/06/14 04:33:10;;;;;;;13.33;9.37;;;;;;;19.58;100.00;99010.22;5069721;28;20598;-82
2022/06/14 04:35:41;;;;;;;12.63;9.53;;;;;;;19.73;100.00;99006.91;5069350;28;20241;-82
2022/06/14 04:38:13;;;;;;;12.87;9.30;;;;;;;19.83;100.00;99013.47;5069406;28;20343;-81
2022/06/14 04:40:43;;;;;;;11.53;9.17;;;;;;;19.97;100.00;99018.91;5069489;28;20720;-82
2022/06/14 04:43:14;;;;;;;10.17;9.07;;;;;;;20.20;100.00;99018.91;5069038;28;20274;-82
2022/06/14 04:45:47;;;;;;;12.70;9.47;;;;;;;20.35;100.00;99020.56;5068797;28;20234;-81
2022/06/14 04:48:18;;;;;;;11.20;9.20;;;;;;;20.52;98.09;99036.84;5069158;28;20211;-81
2022/06/14 04:50:48;;;;;;;12.03;9.30;;;;;;;20.76;97.85;99028.00;5069077;28;20239;-82
2022/06/14 04:53:19;;;;;;;10.97;8.50;;;;;;;20.95;95.54;99039.69;5069370;28;20218;-81
2022/06/14 04:55:49;;;;;;;10.50;8.93;;;;;;;21.15;95.37;99044.34;5069334;28;20232;-81
2022/06/14 04:58:20;;;;;;;14.50;9.07;;;;;;;21.33;94.45;99042.19;5069230;28;20224;-81
2022/06/14 05:00:52;;;;;;;8.93;8.03;;;;;;;21.48;93.36;99040.38;5069080;28;20299;-81
2022/06/14 05:03:23;;;;;;;13.67;8.97;;;;;;;21.73;92.77;99037.47;5069144;28;20726;-82
2022/06/14 05:05:55;;;;;;;11.10;8.50;;;;;;;21.90;91.63;99041.47;5068871;28;20230;-81
2022/06/14 05:08:25;;;;;;;12.55;8.90;;;;;;;22.15;91.92;99041.09;5068912;28;20234;-81
2022/06/14 05:10:57;;;;;;;12.85;8.80;;;;;;;22.39;91.30;99042.50;5068701;28;20806;-82
2022/06/14 05:13:30;;;;;;;10.82;8.65;;;;;;;22.55;88.57;99059.69;5068968;28;20723;-80
2022/06/14 05:16:01;;;;;;;10.25;8.52;;;;;;;22.71;88.41;99051.56;5068653;28;20253;-80
2022/06/14 05:18:34;;;;;;;10.32;8.43;;;;;;;22.57;88.12;99050.69;5069244;28;20734;-81
2022/06/14 05:21:05;;;;;;;12.25;8.68;;;;;;;22.52;88.71;99054.84;5068948;28;20374;-81
2022/06/14 05:23:37;;;;;;;14.90;9.35;;;;;;;22.45;88.57;99062.59;5068682;28;20237;-81
2022/06/14 05:26:18;;;;;;;10.05;8.52;;;;;;;22.41;89.06;99050.16;5068551;28;20285;-80
2022/06/14 05:28:55;;;;;;;9.85;8.75;;;;;;;22.47;88.94;99054.63;5068979;28;20222;-80
2022/06/14 05:31:33;;;;;;;14.88;9.73;;;;;;;22.59;90.39;99053.09;5068662;28;20242;-82
2022/06/14 05:34:06;;;;;;;11.93;8.60;;;;;;;22.81;89.78;99062.50;5068630;28;20628;-81
2022/06/14 05:36:37;;;;;;;11.02;8.50;;;;;;;22.98;88.07;99063.03;5068446;28;20230;-81
2022/06/14 05:39:10;;;;;;;12.85;8.82;;;;;;;23.11;87.04;99070.13;5068533;28;20214;-79
2022/06/14 05:41:42;;;;;;;11.20;9.38;;;;;;;23.16;88.15;99075.56;5068518;28;20234;-81
2022/06/14 05:44:12;;;;;;;11.82;9.57;;;;;;;23.19;86.91;99077.78;5068220;28;20215;-82
2022/06/14 05:46:44;;;;;;;14.82;9.80;;;;;;;23.29;87.38;99077.44;5068404;28;20234;-84
2022/06/14 05:49:15;;;;;;;15.13;9.52;;;;;;;23.36;85.98;99083.50;5068405;28;20210;-80
2022/06/14 05:51:45;;;;;;;10.63;9.32;;;;;;;23.38;84.68;99078.88;5068309;28;20235;-80
2022/06/14 05:54:18;;;;;;;12.85;9.05;;;;;;;23.38;84.77;99078.06;5068397;28;20288;-81
2022/06/14 05:56:51;;;;;;;10.90;8.80;;;;;;;23.39;85.59;99085.72;5068173;28;20232;-82
2022/06/14 05:59:31;;;;;;;12.32;9.35;;;;;;;23.43;85.57;99080.91;5070588;28;20701;-81
2022/06/14 06:02:04;;;;;;;11.77;9.00;;;;;;;23.34;84.49;99082.06;5071827;28;20258;-80
2022/06/14 06:04:37;;;;;;;13.45;9.85;;;;;;;23.38;85.13;99083.28;5071921;28;20608;-83
2022/06/14 06:07:06;;;;;;;11.88;9.82;;;;;;;23.49;86.43;99093.19;5071953;28;20732;-82
2022/06/14 06:09:36;;;;;;;12.40;10.13;;;;;;;23.56;85.58;99096.63;5071732;28;20211;-80
2022/06/14 06:12:08;;;;;;;13.98;9.48;;;;;;;23.50;84.56;99100.00;5071366;28;20231;-78
2022/06/14 06:14:37;;;;;;;18.05;9.95;;;;;;;23.54;84.88;99092.59;5071828;28;20605;-79
2022/06/14 06:17:08;;;;;;;12.73;10.38;;;;;;;23.40;85.62;99096.97;5071547;28;20311;-82
2022/06/14 06:19:42;;;;;;;14.20;10.40;;;;;;;23.46;84.90;99102.19;5071727;28;20740;-81
2022/06/14 06:22:14;;;;;;;15.32;10.75;;;;;;;23.54;86.22;99109.06;5071351;28;20217;-82
2022/06/14 06:24:47;;;;;;;13.35;9.77;;;;;;;23.53;85.19;99107.44;5071716;28;20263;-83
2022/06/14 06:27:13;;;;;;;11.65;9.93;;;;;;;23.61;87.85;99114.31;5071692;28;20214;-80
2022/06/14 06:29:48;;;;;;;12.23;10.52;;;;;;;23.53;84.98;99107.44;5071182;28;20230;-80
2022/06/14 06:32:15;;;;;;;16.33;10.27;;;;;;;23.61;85.96;99109.88;5071478;28;20214;-79
2022/06/14 06:34:41;;;;;;;12.82;10.05;;;;;;;23.70;86.67;99108.75;5071189;28;20206;-79
2022/06/14 06:37:14;;;;;;;13.10;10.38;;;;;;;23.65;84.78;99115.53;5071071;28;20293;-78
2022/06/14 06:39:46;;;;;;;14.95;10.38;;;;;;;23.69;85.05;99121.97;5071334;28;20219;-80
2022/06/14 06:42:19;;;;;;;13.05;9.98;;;;;;;23.73;85.64;99118.81;5071188;28;20218;-80
2022/06/14 06:44:53;;;;;;;11.50;10.23;;;;;;;23.71;84.78;99110.38;5070874;28;20238;-81
2022/06/14 06:47:27;;;;;;;11.10;9.48;;;;;;;23.71;83.66;99113.00;5071456;28;20594;-81
2022/06/14 06:50:02;;;;;;;12.23;9.75;;;;;;;23.79;84.86;99112.00;5070736;28;20748;-79
2022/06/14 06:52:40;;;;;;;11.50;9.05;;;;;;;23.76;84.44;99111.59;5071260;28;20206;-79
2022/06/14 06:55:11;;;;;;;11.77;9.57;;;;;;;23.88;84.83;99110.00;5070959;28;20301;-78
2022/06/14 06:57:41;;;;;;;11.20;8.88;;;;;;;23.92;84.31;99112.03;5070934;28;20409;-79
2022/06/14 07:00:12;;;;;;;13.40;9.52;;;;;;;23.99;84.61;99119.88;5071255;28;20370;-78
2022/06/14 07:02:47;;;;;;;12.10;9.15;;;;;;;24.04;84.95;99120.13;5070887;28;20225;-80
2022/06/14 07:05:16;;;;;;;11.55;9.52;;;;;;;24.27;82.36;99114.53;5070971;28;20234;-80
2022/06/14 07:07:53;;;;;;;13.35;9.32;;;;;;;24.69;83.40;99123.03;5070751;28;20218;-79
2022/06/14 07:10:28;;;;;;;13.20;9.20;;;;;;;24.97;80.50;99130.66;5070350;28;20242;-81
2022/06/14 07:12:59;;;;;;;13.85;9.48;;;;;;;25.06;78.24;99131.25;5070961;28;20711;-81
2022/06/14 07:15:33;;;;;;;13.18;9.52;;;;;;;25.17;77.12;99142.97;5070818;28;20227;-84
2022/06/14 07:18:06;;;;;;;14.45;9.90;;;;;;;25.15;78.25;99144.97;5071093;28;20297;-81
2022/06/14 07:20:44;;;;;;;11.30;9.23;;;;;;;25.25;77.22;99137.53;5071033;28;20231;-81
2022/06/14 07:23:18;;;;;;;12.65;9.73;;;;;;;25.26;78.35;99139.13;5070562;28;20203;-80
2022/06/14 07:25:53;;;;;;;16.20;10.38;;;;;;;25.41;78.79;99128.41;5070584;28;20746;-81
2022/06/14 07:28:27;;;;;;;12.65;10.50;;;;;;;25.46;78.25;99133.84;5070471;28;20643;-83
2022/06/14 07:30:59;;;;;;;13.38;9.65;;;;;;;25.51;79.18;99132.19;5070337;28;20238;-81
2022/06/14 07:33:27;;;;;;;12.38;10.20;;;;;;;25.63;77.72;99131.56;5070625;28;20227;-82
2022/06/14 07:35:56;;;;;;;12.60;9.40;;;;;;;25.71;79.69;99136.53;5070451;28;20241;-81
2022/06/14 07:38:32;;;;;;;11.52;9.27;;;;;;;25.64;77.18;99147.06;5070179;28;20262;-81
2022/06/14 07:41:04;;;;;;;11.18;9.05;;;;;;;25.66;80.20;99144.25;5070177;28;20269;-80
2022/06/14 07:43:38;;;;;;;12.63;9.18;;;;;;;25.67;77.88;99140.59;5070107;28;20241;-81
2022/06/14 07:46:10;;;;;;;11.13;9.05;;;;;;;25.49;78.26;99149.13;5070110;28;20729;-81
2022/06/14 07:48:45;;;;;;;12.65;9.82;;;;;;;25.98;80.19;99137.28;5070367;28;20692;-81
2022/06/14 07:51:21;;;;;;;10.60;9.48;;;;;;;26.26;76.27;99143.97;5070123;28;20320;-80
2022/06/14 07:53:57;;;;;;;11.38;9.48;;;;;;;26.52;74.67;99143.00;5070209;28;20291;-81
2022/06/14 07:56:30;;;;;;;11.65;9.80;;;;;;;26.41;76.25;99147.91;5070328;28;20238;-82
2022/06/14 07:58:59;;;;;;;10.63;9.40;;;;;;;26.38;74.47;99153.59;5070072;28;20688;-80
2022/06/14 08:01:32;;;;;;;15.40;9.00;;;;;;;26.49;74.87;99154.69;5069665;28;20751;-81
2022/06/14 08:04:04;;;;;;;14.10;9.07;;;;;;;26.50;77.12;99145.03;5070135;28;20617;-82
2022/06/14 08:06:35;;;;;;;14.43;9.20;;;;;;;26.48;71.70;99152.31;5070108;28;20246;-81
2022/06/14 08:09:08;;;;;;;11.07;8.80;;;;;;;26.57;74.12;99148.44;5069836;28;20214;-80
2022/06/14 08:11:42;;;;;;;13.77;9.15;;;;;;;26.57;73.11;99151.06;5069595;28;20278;-79
2022/06/14 08:14:14;;;;;;;12.50;8.40;;;;;;;26.72;74.48;99143.66;5069876;28;20214;-82
2022/06/14 08:16:44;;;;;;;9.25;8.13;;;;;;;26.78;73.28;99142.81;5069911;28;20801;-81
2022/06/14 08:19:16;;;;;;;13.10;8.80;;;;;;;27.04;74.85;99140.97;5069703;28;20221;-81
2022/06/14 08:21:46;;;;;;;9.48;8.57;;;;;;;27.27;72.46;99140.38;5068662;28;20214;-82
2022/06/14 10:54:24;;;;;;;8.38;5.00;;;;;;;31.55;51.12;99084.28;5167841;27;20563;-81
2022/06/14 10:57:07;;;;;;;7.55;4.90;;;;;;;31.65;51.98;99090.72;5128777;27;20622;-82
2022/06/14 10:59:57;;;;;;;7.30;4.40;;;;;;;31.77;49.45;99076.34;5126667;28;20212;-82
2022/06/14 11:02:38;;;;;;;8.68;4.32;;;;;;;31.87;49.89;99072.97;5126089;28;20212;-81
2022/06/14 11:05:17;;;;;;;8.25;4.32;;;;;;;32.05;49.91;99071.84;5125834;27;20228;-82
2022/06/14 11:08:08;;;;;;;7.25;4.22;;;;;;;32.03;47.71;99060.75;5126116;27;20208;-82
2022/06/14 11:10:57;;;;;;;8.40;4.10;;;;;;;32.11;45.84;99054.97;5126037;27;20232;-81
2022/06/14 11:13:31;;;;;;;7.35;4.10;;;;;;;32.16;46.56;99057.66;5125969;28;20235;-81
2022/06/14 11:16:08;;;;;;;5.70;3.92;;;;;;;32.38;45.88;99043.53;5126263;27;20718;-83
2022/06/14 11:19:03;;;;;;;8.38;4.13;;;;;;;32.40;45.26;99042.19;5125761;28;20684;-82
2022/06/14 11:21:41;;;;;;;5.82;3.72;;;;;;;32.53;48.54;99040.22;5125749;27;20244;-82
2022/06/14 11:24:14;;;;;;;15.82;3.80;;;;;;;32.36;46.22;99035.03;5125738;28;20204;-83
2022/06/14 11:26:52;;;;;;;3.70;3.35;;;;;;;32.30;46.26;99030.78;5125867;27;20706;-82
2022/06/14 11:29:25;;;;;;;19.15;4.22;;;;;;;32.28;43.97;99032.88;5125770;27;20686;-82
2022/06/14 11:31:57;;;;;;;6.00;3.50;;;;;;;32.19;44.19;99030.69;5125799;27;20625;-84
2022/06/14 11:34:37;;;;;;;6.20;3.75;;;;;;;32.17;48.41;99027.53;5126067;28;20205;-83
2022/06/14 11:37:35;;;;;;;9.25;3.35;;;;;;;32.24;43.97;99022.78;5125498;27;20229;-81
2022/06/14 11:40:08;;;;;;;5.40;3.50;;;;;;;32.24;47.27;99028.09;5118944;27;20293;-82
2022/06/14 11:42:54;;;;;;;6.25;3.13;;;;;;;32.12;43.31;99035.41;5125315;27;20217;-82
2022/06/14 11:45:34;;;;;;;6.47;3.15;;;;;;;32.08;43.02;99028.22;5125578;27;20729;-84
2022/06/14 11:48:10;;;;;;;4.50;2.90;;;;;;;32.08;42.02;99034.31;5125810;27;20652;-82
2022/06/14 11:50:42;;;;;;;7.80;3.00;;;;;;;32.11;45.03;99017.13;5125492;27;20232;-82
2022/06/14 11:53:31;;;;;;;3.58;2.90;;;;;;;32.03;42.53;99026.34;5125366;28;20232;-83
2022/06/14 11:56:03;;;;;;;7.13;2.90;;;;;;;31.91;41.96;99017.78;5125433;27;20228;-83
2022/06/14 11:58:40;;;;;;;3.47;2.75;;;;;;;32.06;44.56;99030.31;5125733;27;20618;-83
2022/06/14 12:01:19;;;;;;;6.47;3.00;;;;;;;32.02;44.14;99024.75;5125295;27;20242;-81
2022/06/14 12:04:11;;;;;;;5.20;2.88;;;;;;;31.98;43.78;99028.94;5121523;28;20257;-82
2022/06/14 12:06:49;;;;;;;8.32;3.00;;;;;;;32.01;42.29;99033.72;5111504;28;20221;-84
2022/06/14 12:10:04;;;;;;;6.80;3.30;;;;;;;32.00;42.90;99034.78;5111619;28;20204;-81
2022/06/14 12:12:40;;;;;;;4.97;2.80;;;;;;;31.97;43.82;99037.91;5028363;28;20270;-84
2022/06/14 12:15:09;;;;;;;3.80;2.70;;;;;;;31.80;42.25;99032.75;5097103;28;20233;-82
2022/06/14 12:17:41;;;;;;;7.63;2.80;;;;;;;31.87;44.52;99032.53;5111057;28;20213;-85
2022/06/14 12:20:15;;;;;;;4.85;2.85;;;;;;;31.78;43.40;99030.34;5111294;28;20229;-84
2022/06/14 12:22:51;;;;;;;4.80;3.05;;;;;;;31.83;44.51;99029.59;5111532;28;20244;-84
2022/06/14 12:28:15;;;;;;;5.35;3.00;;;;;;;31.89;43.45;99035.72;5111159;28;20227;-81
2022/06/14 12:30:44;;;;;;;7.00;2.95;;;;;;;31.84;42.23;99031.19;5111326;28;20726;-83
2022/06/14 12:33:18;;;;;;;7.40;3.00;;;;;;;31.80;42.73;99032.75;5110938;28;20667;-80
2022/06/14 12:35:53;;;;;;;4.25;3.00;;;;;;;31.76;41.82;99029.78;5111172;28;20682;-84
2022/06/14 12:38:27;;;;;;;10.07;3.30;;;;;;;31.74;43.68;99039.03;5111035;28;20209;-80
2022/06/14 12:41:00;;;;;;;8.90;2.88;;;;;;;31.64;41.67;99034.44;5111014;28;20329;-81
2022/06/14 12:43:33;;;;;;;5.57;2.90;;;;;;;31.72;41.74;99033.97;5111018;28;20745;-81
2022/06/14 12:46:07;;;;;;;6.75;2.53;;;;;;;31.63;41.50;99035.50;5110975;28;20667;-82
2022/06/14 12:48:38;;;;;;;5.68;2.60;;;;;;;31.58;39.90;99030.94;5110963;28;20766;-86
2022/06/14 12:51:11;;;;;;;6.40;2.50;;;;;;;31.53;40.78;99028.25;5110856;28;20275;-84
2022/06/14 12:53:44;;;;;;;3.85;2.60;;;;;;;31.52;43.23;99036.44;5110418;28;20229;-85
2022/06/14 12:56:15;;;;;;;4.72;2.55;;;;;;;31.61;41.70;99032.28;5110860;28;20236;-85
2022/06/14 12:58:50;;;;;;;5.15;2.58;;;;;;;31.63;40.23;99032.84;5110631;28;20217;-80
2022/06/14 13:01:28;;;;;;;6.60;2.53;;;;;;;31.51;41.39;99030.34;5110813;28;20305;-79
2022/06/14 13:03:59;;;;;;;7.70;2.50;;;;;;;31.44;38.60;99028.94;5110601;28;20694;-80
2022/06/14 13:06:53;;;;;;;6.20;2.53;;;;;;;31.27;38.44;99035.09;5110667;28;20229;-80
2022/06/14 13:09:28;;;;;;;6.28;2.50;;;;;;;31.19;39.93;99027.59;5110724;28;20680;-85
2022/06/14 13:12:13;;;;;;;6.05;2.30;;;;;;;31.11;38.55;99028.03;5110568;28;20760;-80
2022/06/14 13:14:50;;;;;;;9.30;2.58;;;;;;;30.98;39.21;99025.75;5110698;28;20268;-81
2022/06/14 13:17:33;;;;;;;4.00;2.35;;;;;;;30.86;39.06;99034.63;5109511;28;20208;-79
2022/06/14 13:20:06;;;;;;;5.03;2.45;;;;;;;30.76;37.62;99029.16;5110442;28;20216;-81
2022/06/14 13:22:55;;;;;;;5.68;2.20;;;;;;;30.83;39.73;99035.06;5110163;28;20213;-85
2022/06/14 13:25:41;;;;;;;3.83;2.50;;;;;;;30.70;37.29;99018.78;5110385;28;20736;-84
2022/06/14 13:28:31;;;;;;;6.75;2.40;;;;;;;30.61;38.21;99021.03;5110233;28;20513;-84
2022/06/14 13:31:08;;;;;;;7.85;2.10;;;;;;;30.50;38.24;99029.84;5110352;28;20244;-79
2022/06/14 13:33:48;;;;;;;9.45;2.40;;;;;;;30.44;37.80;99024.50;5109905;28;20236;-81
2022/06/14 13:36:22;;;;;;;4.07;2.40;;;;;;;30.55;39.17;99017.53;5110303;28;20233;-80
2022/06/14 13:38:55;;;;;;;2.58;1.98;;;;;;;30.62;39.75;99023.44;5110514;28;20208;-84
2022/06/14 13:41:32;;;;;;;8.40;2.20;;;;;;;30.48;38.48;99024.81;5110085;28;20244;-81
2022/06/14 13:44:04;;;;;;;4.93;2.35;;;;;;;30.37;37.51;99020.41;5110095;28;20657;-80
2022/06/14 13:46:33;;;;;;;3.67;2.03;;;;;;;30.22;37.51;99021.00;5110503;28;20241;-85
2022/06/14 13:49:09;;;;;;;6.25;2.30;;;;;;;30.13;39.80;99014.50;5109990;28;20271;-80
2022/06/14 13:51:43;;;;;;;3.90;2.28;;;;;;;30.08;37.98;99014.41;5110047;28;20293;-82
2022/06/14 13:54:14;;;;;;;7.50;2.10;;;;;;;29.96;39.13;99014.50;5109592;28;20312;-81
2022/06/14 13:56:49;;;;;;;6.68;2.00;;;;;;;29.88;38.74;99009.63;5109622;28;20260;-84
2022/06/14 13:59:18;;;;;;;5.07;2.08;;;;;;;29.92;40.32;99008.91;5109831;28;20211;-84
2022/06/14 14:01:55;;;;;;;9.13;2.20;;;;;;;29.96;39.99;99004.78;5109851;28;20244;-82
2022/06/14 14:04:31;;;;;;;7.93;2.08;;;;;;;29.88;38.59;99010.44;5109821;28;20604;-81
2022/06/14 14:07:05;;;;;;;4.32;2.08;;;;;;;29.84;38.95;99001.38;5109861;28;20728;-81
2022/06/14 14:09:40;;;;;;;4.65;2.00;;;;;;;29.83;39.36;99005.06;5109499;28;20206;-85
2022/06/14 14:12:18;;;;;;;5.55;2.35;;;;;;;29.85;40.37;99008.28;5109891;28;20667;-81
2022/06/14 14:15:13;;;;;;;4.38;2.25;;;;;;;29.78;39.94;99007.63;5109372;28;20216;-84
2022/06/14 14:17:44;;;;;;;6.30;2.20;;;;;;;29.55;39.24;99011.97;5100033;28;20221;-80
2022/06/14 14:20:42;;;;;;;4.07;1.90;;;;;;;29.46;40.24;99015.97;5109429;28;20229;-82
2022/06/14 14:23:22;;;;;;;6.72;2.25;;;;;;;29.32;42.16;99014.66;5101851;28;20232;-83
2022/06/14 14:25:56;;;;;;;5.93;2.30;;;;;;;29.36;40.71;99025.56;5109517;28;20753;-80
2022/06/14 14:28:27;;;;;;;6.45;2.25;;;;;;;29.30;39.32;99027.28;5109298;28;20594;-83
2022/06/14 14:31:09;;;;;;;4.03;2.20;;;;;;;29.27;41.13;99022.50;5109409;28;20719;-86
2022/06/14 14:33:44;;;;;;;2.70;2.20;;;;;;;29.26;41.19;99031.41;5109413;28;20229;-82